Aviation Digital Data Service (ADDS)

Output produced by METARs form (1429 UTC 30 March 2017)
found at http://www.aviationweather.gov/adds/metars/
 
METAR text: RODN 301358Z AUTO 16006KT 10SM CLR 20/18 A3008 RMK AO2 SLP192 T01980181
Conditions at: RODN (KADENA (USAFB-NA, JP) observed 1358 UTC 30 March 2017
Temperature: 19.8°C (68°F)
Dewpoint: 18.1°C (65°F) [RH = 90%]
Pressure (altimeter): 30.08 inches Hg (1018.7 mb)
[Sea-level pressure: 1019.2 mb]
Winds: from the SSE (160 degrees) at 7 MPH (6 knots; 3.1 m/s)
Visibility: 10 or more miles (16+ km)
Ceiling: at least 12,000 feet AGL
Clouds: sky clear below 12,000 feet AGL
Weather: automated observation with no human augmentation;
there may or may not be significant weather present at this time

METAR text: ROTM 301358Z 18006KT 9999 BKN200 20/17 A3010 RMK SLP177 STNPR29800 T02000167
Conditions at: ROTM (FUTENMA(US-MCAS), JP) observed 1358 UTC 30 March 2017
Temperature: 20.0°C (68°F)
Dewpoint: 16.7°C (62°F) [RH = 81%]
Pressure (altimeter): 30.10 inches Hg (1019.4 mb)
[Sea-level pressure: 1017.7 mb]
Winds: from the S (180 degrees) at 7 MPH (6 knots; 3.1 m/s)
Visibility: 6 or more miles (10+ km)
Ceiling: 20000 feet AGL
Clouds: broken clouds at 20000 feet AGL
Weather: no significant weather observed at this time

METAR text: ROAH 301400Z 19010KT 9999 FEW020 BKN/// 21/17 Q1018 RMK 2CU020 A3007
Conditions at: ROAH (NAHA (CIV/JASDF), JP) observed 1400 UTC 30 March 2017
Temperature: 21.0°C (70°F)
Dewpoint: 17.0°C (63°F) [RH = 78%]
Pressure (altimeter): 30.06 inches Hg (1018.0 mb)
Winds: from the S (190 degrees) at 12 MPH (10 knots; 5.2 m/s)
Visibility: 6 or more miles (10+ km)
Ceiling: at least 12,000 feet AGL
Clouds: few clouds at 2000 feet AGL
Weather: no significant weather observed at this time